createdAt,value
2019-03-06T00:03:15.426Z,98748.56
2019-03-06T00:08:20.986Z,98748.38
2019-03-06T00:13:29.766Z,98748.38
2019-03-06T00:18:49.040Z,98751.63
2019-03-06T00:23:54.613Z,98756.02
2019-03-06T00:29:01.882Z,98766.98
2019-03-06T00:34:07.905Z,98765.31
2019-03-06T00:39:18.791Z,98773.52
2019-03-06T00:44:25.975Z,98771.75
2019-03-06T00:49:31.569Z,98763.65
2019-03-06T00:54:37.155Z,98771.50
2019-03-06T00:59:45.159Z,98778.28
2019-03-06T01:04:51.122Z,98767.17
2019-03-06T01:09:56.733Z,98767.17
2019-03-06T01:15:02.334Z,98770.83
2019-03-06T01:20:13.135Z,98763.11
2019-03-06T01:25:19.797Z,98763.11
2019-03-06T01:30:25.419Z,98762.53
2019-03-06T01:36:02.137Z,98757.75
2019-03-06T01:41:39.247Z,98769.06
2019-03-06T01:46:43.999Z,98772.23
2019-03-06T01:51:49.569Z,98772.23
2019-03-06T01:57:06.654Z,98745.91
2019-03-06T02:02:12.541Z,98773.39
2019-03-06T02:07:18.216Z,98772.81
2019-03-06T02:12:24.296Z,98786.11
2019-03-06T02:17:29.862Z,98787.84
2019-03-06T02:22:35.449Z,98791.60
2019-03-06T02:27:41.412Z,98791.70
2019-03-06T02:32:47.084Z,98795.53
2019-03-06T02:37:52.656Z,98793.27
2019-03-06T02:42:58.359Z,98793.34
2019-03-06T02:48:05.981Z,98796.80
2019-03-06T02:53:42.037Z,98795.16
2019-03-06T02:58:54.851Z,98802.32
2019-03-06T03:04:24.316Z,98798.22
2019-03-06T03:09:30.200Z,98794.09
2019-03-06T03:14:36.823Z,98789.95
2019-03-06T03:19:43.059Z,98795.73
2019-03-06T03:24:48.760Z,98802.86
2019-03-06T03:29:54.350Z,98796.89
2019-03-06T03:35:16.362Z,98810.53
2019-03-06T03:40:27.458Z,98796.00
2019-03-06T03:45:35.235Z,98801.19
2019-03-06T03:50:41.127Z,98786.36
2019-03-06T03:55:47.040Z,98807.74
2019-03-06T04:00:52.866Z,98809.00
2019-03-06T04:05:58.546Z,98811.81
2019-03-06T04:11:08.728Z,98812.73
2019-03-06T04:16:28.021Z,98824.80
2019-03-06T04:21:34.446Z,98820.69
2019-03-06T04:26:39.937Z,98807.51
2019-03-06T04:31:45.896Z,98807.51
2019-03-06T04:36:53.083Z,98824.58
2019-03-06T04:41:58.663Z,98818.10
2019-03-06T04:47:06.199Z,98816.19
2019-03-06T04:52:13.460Z,98805.42
2019-03-06T04:57:19.005Z,98772.81
2019-03-06T05:02:24.576Z,98772.81
2019-03-06T05:07:30.811Z,98781.58
2019-03-06T05:12:36.480Z,98783.89
2019-03-06T05:17:49.220Z,98776.52
2019-03-06T05:22:54.833Z,98776.52
2019-03-06T05:28:00.549Z,98784.05
2019-03-06T05:33:08.567Z,98800.22
2019-03-06T05:38:25.282Z,98805.97
2019-03-06T05:43:30.788Z,98807.63
2019-03-06T05:48:36.458Z,98810.29
2019-03-06T05:53:42.177Z,98792.56
2019-03-06T05:58:47.980Z,98801.73
2019-03-06T06:03:53.531Z,98806.36
2019-03-06T06:08:59.895Z,98801.12
2019-03-06T06:14:05.724Z,98789.00
2019-03-06T06:19:39.581Z,98780.81
2019-03-06T06:24:45.512Z,98780.11
2019-03-06T06:30:06.979Z,98766.63
2019-03-06T06:35:15.557Z,98770.59
2019-03-06T06:40:24.519Z,98758.93
2019-03-06T06:45:33.061Z,98758.93
2019-03-06T06:50:39.819Z,98740.28
2019-03-06T06:56:32.477Z,98740.28
2019-03-06T07:02:42.286Z,98746.09
2019-03-06T07:08:07.922Z,98745.10
2019-03-06T07:13:38.880Z,98745.61
2019-03-06T07:19:12.902Z,98751.47
2019-03-06T07:24:55.379Z,98744.77
2019-03-06T07:30:35.225Z,98735.95
2019-03-06T07:36:16.932Z,98733.32
2019-03-06T07:41:40.108Z,98730.98
2019-03-06T07:47:03.479Z,98727.15
2019-03-06T07:52:34.028Z,98720.00
2019-03-06T07:58:16.385Z,98712.61
2019-03-06T08:03:35.244Z,98711.82
2019-03-06T08:09:04.246Z,98706.09
2019-03-06T08:14:33.119Z,98697.28
2019-03-06T08:19:56.408Z,98705.93
2019-03-06T08:25:20.373Z,98698.28
2019-03-06T08:30:28.050Z,98694.41
2019-03-06T08:35:34.195Z,98699.13
2019-03-06T08:40:39.822Z,98693.91
2019-03-06T08:45:56.591Z,98693.30
2019-03-06T08:51:19.665Z,98687.25
2019-03-06T08:56:44.194Z,98674.59
2019-03-06T09:02:00.969Z,98675.70
2019-03-06T09:07:26.872Z,98670.69
2019-03-06T09:12:51.048Z,98658.39
2019-03-06T09:18:34.148Z,98653.50
2019-03-06T09:24:06.185Z,98646.70
2019-03-06T09:29:36.792Z,98641.53
2019-03-06T09:35:01.430Z,98638.06
2019-03-06T09:40:23.212Z,98627.47
2019-03-06T09:46:19.072Z,98622.34
2019-03-06T09:51:43.750Z,98617.53
2019-03-06T09:57:06.812Z,98605.37
2019-03-06T10:02:19.546Z,98610.23
2019-03-06T10:07:52.870Z,98594.67
2019-03-06T10:13:07.548Z,98587.48
2019-03-06T10:18:26.930Z,98588.28
2019-03-06T10:23:32.533Z,98590.98
2019-03-06T10:28:38.208Z,98581.84
2019-03-06T10:33:44.222Z,98571.91
2019-03-06T10:38:50.287Z,98560.04
2019-03-06T10:43:56.116Z,98558.54
2019-03-06T10:49:01.819Z,98558.66
2019-03-06T10:54:07.675Z,98547.22
2019-03-06T10:59:13.470Z,98536.13
2019-03-06T11:04:27.362Z,98534.66
2019-03-06T11:09:35.270Z,98531.55
2019-03-06T11:14:40.985Z,98530.19
2019-03-06T11:19:48.787Z,98517.84
2019-03-06T11:24:54.989Z,98505.08
2019-03-06T11:30:01.636Z,98507.19
2019-03-06T11:35:10.716Z,98485.17
2019-03-06T11:40:16.894Z,98497.80
2019-03-06T11:45:26.259Z,98491.15
2019-03-06T11:50:40.423Z,98478.25
2019-03-06T11:55:39.919Z,98475.48
2019-03-06T12:00:47.226Z,98458.91
2019-03-06T12:05:53.547Z,98464.47
2019-03-06T12:10:59.504Z,98467.89
2019-03-06T12:16:05.728Z,98445.47
2019-03-06T12:21:11.300Z,98446.20
2019-03-06T12:26:17.036Z,98432.05
2019-03-06T12:31:23.011Z,98443.11
2019-03-06T12:36:28.586Z,98432.34
2019-03-06T12:41:37.685Z,98426.97
2019-03-06T12:46:44.097Z,98408.55
2019-03-06T12:51:54.373Z,98398.59
2019-03-06T12:56:58.494Z,98383.87
2019-03-06T13:02:05.625Z,98375.69
2019-03-06T13:07:13.175Z,98366.91
2019-03-06T13:12:18.699Z,98349.85
2019-03-06T13:17:26.262Z,98327.04
2019-03-06T13:22:31.947Z,98315.39
2019-03-06T13:27:37.521Z,98306.43
2019-03-06T13:32:51.808Z,98300.55
2019-03-06T13:37:57.507Z,98296.63
2019-03-06T13:43:06.019Z,98285.75
2019-03-06T13:48:35.716Z,98260.99
2019-03-06T13:53:43.519Z,98265.80
2019-03-06T13:58:49.224Z,98256.42
2019-03-06T14:03:55.502Z,98245.54
2019-03-06T14:14:12.314Z,98220.22
2019-03-06T14:19:17.918Z,98216.25
2019-03-06T14:24:25.356Z,98200.82
2019-03-06T14:29:35.050Z,98203.02
2019-03-06T14:34:40.688Z,98187.63
2019-03-06T14:39:46.449Z,98179.55
2019-03-06T14:44:52.092Z,98176.67
2019-03-06T14:49:58.348Z,98169.07
2019-03-06T14:55:04.439Z,98161.30
2019-03-06T15:00:13.529Z,98169.75
2019-03-06T15:05:20.817Z,98153.42
2019-03-06T15:10:26.638Z,98152.09
2019-03-06T15:15:32.332Z,98146.86
2019-03-06T15:20:38.149Z,98138.08
2019-03-06T15:25:44.180Z,98124.23
2019-03-06T15:30:49.965Z,98108.89
2019-03-06T15:35:58.753Z,98096.56
2019-03-06T15:41:12.546Z,98096.41
2019-03-06T15:46:20.439Z,98085.27
2019-03-06T15:51:26.131Z,98085.78
2019-03-06T15:56:32.134Z,98072.80
2019-03-06T16:01:38.342Z,98067.39
2019-03-06T16:06:44.001Z,98054.19
2019-03-06T16:11:51.668Z,98046.61
2019-03-06T16:16:57.584Z,98035.47
2019-03-06T16:22:06.484Z,98029.07
2019-03-06T16:27:16.201Z,98023.07
2019-03-06T16:32:21.847Z,98015.21
2019-03-06T16:37:28.403Z,98010.29
2019-03-06T16:42:34.206Z,97990.91
2019-03-06T16:47:40.369Z,97994.77
2019-03-06T16:52:46.727Z,97981.58
2019-03-06T16:57:54.100Z,97976.34
2019-03-06T17:03:01.040Z,97976.02
2019-03-06T17:08:11.701Z,97970.45
2019-03-06T17:13:22.977Z,97959.73
2019-03-06T17:18:31.863Z,97942.72
2019-03-06T17:23:39.501Z,97945.70
2019-03-06T17:28:48.233Z,97944.02
2019-03-06T17:33:56.569Z,97939.81
2019-03-06T17:39:11.097Z,97927.00
2019-03-06T17:44:18.455Z,97933.41
2019-03-06T17:49:24.434Z,97925.08
2019-03-06T17:54:33.341Z,97932.91
2019-03-06T17:59:43.359Z,97932.39
2019-03-06T18:04:55.168Z,97916.00
2019-03-06T18:10:01.490Z,97899.18
2019-03-06T18:15:12.916Z,97887.78
2019-03-06T18:20:20.773Z,97875.62
2019-03-06T18:25:32.922Z,97865.05
2019-03-06T18:30:43.020Z,97848.02
2019-03-06T18:35:49.156Z,97850.70
2019-03-06T18:40:59.364Z,97838.45
2019-03-06T18:46:07.999Z,97822.29
2019-03-06T18:51:16.267Z,97822.30
2019-03-06T18:56:38.171Z,97816.03
2019-03-06T19:01:46.768Z,97825.49
2019-03-06T19:06:53.407Z,97828.14
2019-03-06T19:12:12.758Z,97826.30
2019-03-06T19:17:20.854Z,97827.59
2019-03-06T19:22:31.272Z,97822.41
2019-03-06T19:28:13.680Z,97812.48
2019-03-06T19:33:23.563Z,97814.62
2019-03-06T19:38:35.597Z,97821.67
2019-03-06T19:43:41.944Z,97815.52
2019-03-06T19:48:51.487Z,97817.41
2019-03-06T19:54:03.273Z,97808.79
2019-03-06T19:59:10.602Z,97811.99
2019-03-06T20:04:22.769Z,97787.11
2019-03-06T20:09:35.077Z,97790.47
2019-03-06T20:14:44.399Z,97784.05
2019-03-06T20:19:58.089Z,97774.97
2019-03-06T20:25:29.133Z,97774.16
2019-03-06T20:30:43.902Z,97767.58
2019-03-06T20:35:50.156Z,97752.06
2019-03-06T20:41:11.441Z,97747.52
2019-03-06T20:46:22.209Z,97734.57
2019-03-06T20:51:30.092Z,97733.38
2019-03-06T20:56:49.896Z,97731.86
2019-03-06T21:02:03.881Z,97731.05
2019-03-06T21:07:12.796Z,97724.81
2019-03-06T21:12:20.075Z,97718.09
2019-03-06T21:17:27.542Z,97715.08
2019-03-06T21:22:34.979Z,97718.27
2019-03-06T21:27:41.006Z,97720.59
2019-03-06T21:32:48.222Z,97713.20
2019-03-06T21:37:57.233Z,97718.44
2019-03-06T21:43:06.851Z,97710.36
2019-03-06T21:48:14.616Z,97706.80
2019-03-06T21:53:22.370Z,97712.86
2019-03-06T21:58:29.589Z,97711.01
2019-03-06T22:03:35.489Z,97701.22
2019-03-06T22:08:41.173Z,97694.28
2019-03-06T22:13:46.888Z,97696.38
2019-03-06T22:18:53.374Z,97704.62
2019-03-06T22:23:59.074Z,97699.77
2019-03-06T22:29:05.424Z,97688.81
2019-03-06T22:34:11.725Z,97694.77
2019-03-06T22:39:17.494Z,97690.31
2019-03-06T22:44:23.287Z,97676.50
2019-03-06T22:49:29.055Z,97675.47
2019-03-06T22:54:34.742Z,97661.44
2019-03-06T22:59:40.479Z,97666.95
2019-03-06T23:04:46.161Z,97643.80
2019-03-06T23:09:52.210Z,97640.42
2019-03-06T23:14:58.376Z,97632.09
2019-03-06T23:20:09.334Z,97621.86
2019-03-06T23:25:15.033Z,97616.46
2019-03-06T23:30:36.308Z,97607.52
2019-03-06T23:35:41.991Z,97602.89
2019-03-06T23:40:47.664Z,97587.39
2019-03-06T23:51:56.887Z,97570.80
2019-03-06T23:57:07.192Z,97572.42
